createdAt,value
2022-12-14T00:00:03.440Z,-3.86
2022-12-14T00:03:02.719Z,-4.04
2022-12-14T00:05:31.765Z,-4.17
2022-12-14T00:08:00.673Z,-4.29
2022-12-14T00:10:29.882Z,-4.45
2022-12-14T00:12:58.735Z,-4.61
2022-12-14T00:15:27.871Z,-4.77
2022-12-14T00:17:56.678Z,-4.94
2022-12-14T00:20:27.583Z,-5.14
2022-12-14T00:22:57.914Z,-5.31
2022-12-14T00:25:26.667Z,-5.45
2022-12-14T00:27:55.450Z,-5.59
2022-12-14T00:30:24.287Z,-5.69
2022-12-14T00:32:53.550Z,-5.79
2022-12-14T00:35:23.090Z,-5.87
2022-12-14T00:37:51.816Z,-5.98
2022-12-14T00:40:20.508Z,-6.11
2022-12-14T00:42:49.229Z,-6.24
2022-12-14T00:45:17.949Z,-6.39
2022-12-14T00:47:46.726Z,-6.52
2022-12-14T00:50:15.436Z,-6.67
2022-12-14T00:52:44.159Z,-6.81
2022-12-14T00:55:12.849Z,-6.92
2022-12-14T00:57:41.581Z,-7.02
2022-12-14T01:00:11.940Z,-7.09
2022-12-14T01:02:40.772Z,-7.16
2022-12-14T01:05:10.565Z,-7.24
2022-12-14T01:07:39.228Z,-7.31
2022-12-14T01:10:09.071Z,-7.32
2022-12-14T01:12:37.835Z,-7.35
2022-12-14T01:15:07.260Z,-7.38
2022-12-14T01:17:36.124Z,-7.38
2022-12-14T01:20:06.032Z,-7.35
2022-12-14T01:22:34.796Z,-7.38
2022-12-14T01:25:05.361Z,-7.43
2022-12-14T01:27:34.105Z,-7.51
2022-12-14T01:30:04.486Z,-7.61
2022-12-14T01:32:34.982Z,-7.72
2022-12-14T01:35:04.064Z,-7.80
2022-12-14T01:37:32.952Z,-7.84
2022-12-14T01:40:01.599Z,-7.86
2022-12-14T01:42:30.463Z,-7.92
2022-12-14T01:44:59.183Z,-7.97
2022-12-14T01:47:40.928Z,-8.03
2022-12-14T01:50:26.464Z,-8.09
2022-12-14T01:53:02.824Z,-8.13
2022-12-14T01:55:38.452Z,-8.16
2022-12-14T01:58:26.382Z,-8.16
2022-12-14T02:00:58.530Z,-8.17
2022-12-14T02:03:37.121Z,-8.20
2022-12-14T02:06:19.918Z,-8.25
2022-12-14T02:08:52.500Z,-8.28
2022-12-14T02:11:38.856Z,-8.28
2022-12-14T02:14:07.539Z,-8.26
2022-12-14T02:16:38.729Z,-8.25
2022-12-14T02:19:07.449Z,-8.26
2022-12-14T02:22:15.311Z,-8.28
2022-12-14T02:25:11.959Z,-8.34
2022-12-14T02:28:11.138Z,-8.42
2022-12-14T02:30:42.866Z,-8.52
2022-12-14T02:33:53.935Z,-8.60
2022-12-14T02:36:40.116Z,-8.66
2022-12-14T02:39:28.467Z,-8.70
2022-12-14T02:42:20.257Z,-8.77
2022-12-14T02:45:11.108Z,-8.83
2022-12-14T02:47:59.872Z,-8.87
2022-12-14T02:51:08.682Z,-8.91
2022-12-14T02:53:57.069Z,-8.98
2022-12-14T02:56:37.502Z,-9.01
2022-12-14T02:59:08.433Z,-9.03
2022-12-14T03:01:39.227Z,-9.03
2022-12-14T03:04:08.366Z,-9.04
2022-12-14T03:06:37.452Z,-9.09
2022-12-14T03:09:17.644Z,-9.13
2022-12-14T03:11:56.330Z,-9.16
2022-12-14T03:14:43.575Z,-9.19
2022-12-14T03:17:19.879Z,-9.25
2022-12-14T03:20:13.548Z,-9.23
2022-12-14T03:22:47.286Z,-9.16
2022-12-14T03:25:46.392Z,-9.07
2022-12-14T03:28:26.864Z,-8.98
2022-12-14T03:31:11.157Z,-8.91
2022-12-14T03:33:43.070Z,-8.89
2022-12-14T03:36:32.736Z,-8.90
2022-12-14T03:39:06.758Z,-8.87
2022-12-14T03:42:08.031Z,-8.84
2022-12-14T03:45:03.710Z,-8.82
2022-12-14T03:48:15.716Z,-8.79
2022-12-14T03:50:53.004Z,-8.82
2022-12-14T03:53:47.779Z,-8.82
2022-12-14T03:56:16.428Z,-8.88
2022-12-14T03:59:25.766Z,-8.93
2022-12-14T04:02:46.942Z,-8.99
2022-12-14T04:05:55.360Z,-9.08
2022-12-14T04:08:42.017Z,-9.13
2022-12-14T04:11:35.201Z,-9.07
2022-12-14T04:14:44.729Z,-9.01
2022-12-14T04:17:38.577Z,-9.01
2022-12-14T04:20:20.345Z,-9.06
2022-12-14T04:22:58.687Z,-9.13
2022-12-14T04:25:54.270Z,-9.20
2022-12-14T04:29:12.528Z,-9.27
2022-12-14T04:31:49.254Z,-9.38
2022-12-14T04:34:21.306Z,-9.45
2022-12-14T04:36:58.704Z,-9.51
2022-12-14T04:39:39.536Z,-9.56
2022-12-14T04:42:10.876Z,-9.59
2022-12-14T04:44:49.896Z,-9.56
2022-12-14T04:47:19.949Z,-9.57
2022-12-14T04:50:06.500Z,-9.62
2022-12-14T04:52:46.523Z,-9.63
2022-12-14T04:55:28.529Z,-9.63
2022-12-14T04:58:12.847Z,-9.68
2022-12-14T05:01:20.119Z,-9.75
2022-12-14T05:04:12.929Z,-9.84
2022-12-14T05:07:00.187Z,-9.88
2022-12-14T05:09:39.249Z,-9.93
2022-12-14T05:12:18.479Z,-9.96
2022-12-14T05:15:10.681Z,-9.99
2022-12-14T05:17:41.825Z,-10.04
2022-12-14T05:20:20.962Z,-10.06
2022-12-14T05:22:50.777Z,-10.04
2022-12-14T05:25:19.467Z,-10.03
2022-12-14T05:27:48.181Z,-10.04
2022-12-14T05:30:17.014Z,-10.05
2022-12-14T05:32:45.861Z,-10.05
2022-12-14T05:35:15.905Z,-10.02
2022-12-14T05:37:44.810Z,-10.01
2022-12-14T05:40:13.982Z,-10.03
2022-12-14T05:42:45.368Z,-10.05
2022-12-14T05:45:16.636Z,-10.07
2022-12-14T05:47:45.472Z,-10.10
2022-12-14T05:50:14.373Z,-10.11
2022-12-14T05:52:43.054Z,-10.11
2022-12-14T05:55:11.754Z,-10.12
2022-12-14T05:57:40.398Z,-10.14
2022-12-14T06:00:11.077Z,-10.11
2022-12-14T06:02:39.864Z,-10.09
2022-12-14T06:05:09.116Z,-10.11
2022-12-14T06:07:37.840Z,-10.14
2022-12-14T06:10:07.059Z,-10.18
2022-12-14T06:12:35.810Z,-10.19
2022-12-14T06:15:05.291Z,-10.15
2022-12-14T06:17:34.107Z,-10.11
2022-12-14T06:20:02.916Z,-10.13
2022-12-14T06:22:31.690Z,-10.16
2022-12-14T06:25:00.366Z,-10.14
2022-12-14T06:27:29.382Z,-10.06
2022-12-14T06:29:58.257Z,-9.97
2022-12-14T06:32:26.982Z,-9.95
2022-12-14T06:34:55.948Z,-10.00
2022-12-14T06:37:24.767Z,-10.03
2022-12-14T06:39:54.536Z,-10.02
2022-12-14T06:42:25.359Z,-9.98
2022-12-14T06:44:54.080Z,-9.96
2022-12-14T06:47:22.818Z,-9.94
2022-12-14T06:49:51.571Z,-9.95
2022-12-14T06:52:26.402Z,-9.95
2022-12-14T06:54:55.489Z,-9.98
2022-12-14T06:57:24.179Z,-10.01
2022-12-14T06:59:53.073Z,-10.05
2022-12-14T07:02:21.894Z,-10.10
2022-12-14T07:04:50.809Z,-10.11
2022-12-14T07:07:19.514Z,-10.09
2022-12-14T07:09:48.780Z,-10.09
2022-12-14T07:12:17.470Z,-10.09
2022-12-14T07:14:46.222Z,-10.05
2022-12-14T07:17:14.990Z,-10.00
2022-12-14T07:19:44.179Z,-9.95
2022-12-14T07:22:18.002Z,-9.94
2022-12-14T07:24:46.881Z,-9.92
2022-12-14T07:27:18.842Z,-9.91
2022-12-14T07:29:47.550Z,-9.91
2022-12-14T07:32:16.235Z,-9.91
2022-12-14T07:34:44.966Z,-9.89
2022-12-14T07:37:13.957Z,-9.87
2022-12-14T07:39:43.164Z,-9.84
2022-12-14T07:42:13.118Z,-9.80
2022-12-14T07:44:44.971Z,-9.75
2022-12-14T07:47:16.734Z,-9.68
2022-12-14T07:49:45.704Z,-9.61
2022-12-14T07:52:18.930Z,-9.51
2022-12-14T07:54:48.693Z,-9.43
2022-12-14T07:57:17.401Z,-9.33
2022-12-14T07:59:46.245Z,-9.27
2022-12-14T08:02:15.480Z,-9.21
2022-12-14T08:04:44.586Z,-9.13
2022-12-14T08:07:13.487Z,-9.08
2022-12-14T08:09:42.174Z,-9.07
2022-12-14T08:12:10.931Z,-9.09
2022-12-14T08:14:39.801Z,-9.09
2022-12-14T08:17:08.605Z,-9.09
2022-12-14T08:19:37.420Z,-9.12
2022-12-14T08:22:07.185Z,-9.13
2022-12-14T08:24:35.917Z,-9.15
2022-12-14T08:27:04.783Z,-9.16
2022-12-14T08:29:33.506Z,-9.15
2022-12-14T08:32:02.820Z,-9.14
2022-12-14T08:34:31.583Z,-9.13
2022-12-14T08:37:00.269Z,-9.11
2022-12-14T08:39:29.027Z,-9.07
2022-12-14T08:41:57.831Z,-9.06
2022-12-14T08:44:26.707Z,-9.06
2022-12-14T08:46:55.506Z,-9.04
2022-12-14T08:49:27.741Z,-9.01
2022-12-14T08:52:00.928Z,-8.97
2022-12-14T08:54:29.992Z,-8.95
2022-12-14T08:56:58.876Z,-8.90
2022-12-14T08:59:59.534Z,-8.84
2022-12-14T09:02:16.334Z,-8.80
2022-12-14T09:04:45.090Z,-8.76
2022-12-14T09:07:13.839Z,-8.70
2022-12-14T09:09:42.604Z,-8.57
2022-12-14T09:12:11.366Z,-8.49
2022-12-14T09:14:40.066Z,-8.43
2022-12-14T09:17:08.781Z,-8.31
2022-12-14T09:19:37.491Z,-8.20
2022-12-14T09:22:06.360Z,-8.05
2022-12-14T09:24:35.765Z,-7.90
2022-12-14T09:27:04.562Z,-7.76
2022-12-14T09:29:33.342Z,-7.63
2022-12-14T09:32:02.273Z,-7.47
2022-12-14T09:34:34.003Z,-7.29
2022-12-14T09:37:04.736Z,-7.09
2022-12-14T09:39:34.443Z,-6.93
2022-12-14T09:42:08.609Z,-6.73
2022-12-14T09:44:49.887Z,-6.53
2022-12-14T09:47:37.421Z,-6.37
2022-12-14T09:50:14.769Z,-6.25
2022-12-14T09:52:48.848Z,-6.16
2022-12-14T09:55:29.364Z,-6.10
2022-12-14T09:58:29.383Z,-6.01
2022-12-14T10:01:18.301Z,-5.96
2022-12-14T10:04:25.324Z,-5.92
2022-12-14T10:07:24.252Z,-5.90
2022-12-14T10:10:26.699Z,-5.86
2022-12-14T10:13:23.795Z,-5.80
2022-12-14T10:16:11.109Z,-5.66
2022-12-14T10:19:01.158Z,-5.57
2022-12-14T10:22:00.581Z,-5.41
2022-12-14T10:24:43.912Z,-5.29
2022-12-14T10:27:37.972Z,-5.22
2022-12-14T10:30:21.274Z,-5.09
2022-12-14T10:33:05.323Z,-4.88
2022-12-14T10:35:42.938Z,-4.73
2022-12-14T10:38:25.236Z,-4.54
2022-12-14T10:41:07.219Z,-4.31
2022-12-14T10:44:01.501Z,-4.19
2022-12-14T10:46:50.619Z,-4.08
2022-12-14T10:49:38.191Z,-3.86
2022-12-14T10:52:18.704Z,-3.57
2022-12-14T10:54:58.620Z,-3.26
2022-12-14T10:57:28.488Z,-2.82
2022-12-14T11:00:09.600Z,-1.99
2022-12-14T11:02:44.169Z,-0.78
2022-12-14T11:05:37.779Z,-0.07
2022-12-14T11:08:08.518Z,-0.06
2022-12-14T11:10:40.858Z,-0.39
2022-12-14T11:13:21.571Z,-0.69
2022-12-14T11:15:53.069Z,-1.05
2022-12-14T11:18:31.386Z,-1.28
2022-12-14T11:21:05.611Z,-1.64
2022-12-14T11:23:40.318Z,-1.98
2022-12-14T11:26:42.303Z,-2.26
2022-12-14T11:29:31.942Z,-2.54
2022-12-14T11:32:01.442Z,-2.83
2022-12-14T11:34:40.581Z,-3.03
2022-12-14T11:37:30.476Z,-3.23
2022-12-14T11:40:04.050Z,-3.43
2022-12-14T11:42:34.138Z,-3.54
2022-12-14T11:45:25.946Z,-3.58
2022-12-14T11:48:13.596Z,-3.57
2022-12-14T11:50:44.773Z,-3.54
2022-12-14T11:53:18.469Z,-3.48
2022-12-14T11:56:00.037Z,-3.46
2022-12-14T11:58:35.731Z,-3.37
2022-12-14T12:01:26.268Z,-3.35
2022-12-14T12:03:58.927Z,-3.33
2022-12-14T12:06:30.215Z,-3.36
2022-12-14T12:09:02.915Z,-3.48
2022-12-14T12:11:34.842Z,-3.65
2022-12-14T12:14:22.863Z,-3.77
2022-12-14T12:16:53.261Z,-3.89
2022-12-14T12:19:30.837Z,-3.94
2022-12-14T12:22:05.481Z,-3.97
2022-12-14T12:25:24.918Z,-3.96
2022-12-14T12:28:11.838Z,-3.96
2022-12-14T12:30:45.729Z,-3.96
2022-12-14T12:33:58.087Z,-3.96
2022-12-14T12:36:27.638Z,-3.94
2022-12-14T12:39:06.776Z,-3.93
2022-12-14T12:42:18.058Z,-3.99
2022-12-14T12:45:41.024Z,-4.06
2022-12-14T12:48:16.957Z,-4.13
2022-12-14T12:50:51.407Z,-4.14
2022-12-14T12:53:40.048Z,-4.16
2022-12-14T12:56:26.835Z,-4.20
2022-12-14T12:58:56.631Z,-4.22
2022-12-14T13:01:50.102Z,-4.23
2022-12-14T13:04:36.170Z,-4.27
2022-12-14T13:07:21.209Z,-4.35
2022-12-14T13:10:05.985Z,-4.42
2022-12-14T13:12:43.313Z,-4.44
2022-12-14T13:15:33.426Z,-4.45
2022-12-14T13:18:40.652Z,-4.50
2022-12-14T13:21:29.208Z,-4.55
2022-12-14T13:23:59.112Z,-4.57
2022-12-14T13:26:59.331Z,-4.55
2022-12-14T13:29:40.354Z,-4.56
2022-12-14T13:32:44.732Z,-4.59
2022-12-14T13:36:08.579Z,-4.64
2022-12-14T13:38:47.378Z,-4.68
2022-12-14T13:41:34.886Z,-4.70
2022-12-14T13:44:40.179Z,-4.78
2022-12-14T13:47:23.051Z,-4.94
2022-12-14T13:52:50.337Z,-5.09
2022-12-14T13:55:28.998Z,-5.12
2022-12-14T13:58:19.637Z,-5.14
2022-12-14T14:00:58.836Z,-5.17
2022-12-14T14:03:37.420Z,-5.22
2022-12-14T14:06:12.688Z,-5.32
2022-12-14T14:08:44.894Z,-5.41
2022-12-14T14:11:39.131Z,-5.43
2022-12-14T14:14:48.213Z,-5.49
2022-12-14T14:17:35.350Z,-5.55
2022-12-14T14:20:36.398Z,-5.57
2022-12-14T14:23:14.255Z,-5.59
2022-12-14T14:25:51.670Z,-5.64
2022-12-14T14:28:30.615Z,-5.70
2022-12-14T14:30:59.954Z,-5.74
2022-12-14T14:33:49.099Z,-5.77
2022-12-14T14:36:35.242Z,-5.78
2022-12-14T14:39:54.613Z,-5.81
2022-12-14T14:42:24.179Z,-5.81
2022-12-14T14:44:59.038Z,-5.79
2022-12-14T14:47:40.595Z,-5.76
2022-12-14T14:50:25.788Z,-5.74
2022-12-14T14:53:11.554Z,-5.72
2022-12-14T14:55:53.805Z,-5.66
2022-12-14T14:58:38.959Z,-5.61
2022-12-14T15:01:31.462Z,-5.58
2022-12-14T15:04:16.959Z,-5.57
2022-12-14T15:06:58.507Z,-5.63
2022-12-14T15:09:35.815Z,-5.62
2022-12-14T15:12:40.819Z,-5.59
2022-12-14T15:15:37.096Z,-5.57
2022-12-14T15:18:16.293Z,-5.57
2022-12-14T15:20:54.010Z,-5.57
2022-12-14T15:23:23.431Z,-5.57
2022-12-14T15:26:01.688Z,-5.52
2022-12-14T15:28:30.399Z,-5.50
2022-12-14T15:31:00.449Z,-5.49
2022-12-14T15:33:34.679Z,-5.46
2022-12-14T15:36:17.215Z,-5.44
2022-12-14T15:38:55.760Z,-5.45
2022-12-14T15:41:29.185Z,-5.45
2022-12-14T15:44:00.282Z,-5.42
2022-12-14T15:46:40.225Z,-5.40
2022-12-14T15:49:23.204Z,-5.39
2022-12-14T15:51:53.706Z,-5.37
2022-12-14T15:54:26.393Z,-5.33
2022-12-14T15:57:00.123Z,-5.33
2022-12-14T15:59:36.111Z,-5.32
2022-12-14T16:02:28.212Z,-5.32
2022-12-14T16:05:01.588Z,-5.31
2022-12-14T16:07:39.153Z,-5.27
2022-12-14T16:10:34.458Z,-5.19
2022-12-14T16:13:19.615Z,-5.13
2022-12-14T16:15:50.879Z,-5.09
2022-12-14T16:18:20.821Z,-5.06
2022-12-14T16:21:02.598Z,-5.03
2022-12-14T16:23:37.943Z,-4.97
2022-12-14T16:26:14.463Z,-4.95
2022-12-14T16:28:43.269Z,-4.95
2022-12-14T16:31:14.934Z,-4.93
2022-12-14T16:33:44.628Z,-4.91
2022-12-14T16:36:25.565Z,-4.89
2022-12-14T16:39:21.876Z,-4.87
2022-12-14T16:42:02.841Z,-4.85
2022-12-14T16:44:34.244Z,-4.82
2022-12-14T16:47:03.047Z,-4.79
2022-12-14T16:49:40.960Z,-4.79
2022-12-14T16:52:11.938Z,-4.80
2022-12-14T16:54:41.439Z,-4.78
2022-12-14T16:57:24.477Z,-4.77
2022-12-14T17:00:02.180Z,-4.74
2022-12-14T17:02:40.697Z,-4.75
2022-12-14T17:05:20.527Z,-4.74
2022-12-14T17:07:50.223Z,-4.70
2022-12-14T17:10:23.408Z,-4.69
2022-12-14T17:13:00.170Z,-4.69
2022-12-14T17:15:34.171Z,-4.66
2022-12-14T17:18:05.115Z,-4.62
2022-12-14T17:20:36.955Z,-4.56
2022-12-14T17:23:09.984Z,-4.51
2022-12-14T17:25:42.034Z,-4.49
2022-12-14T17:28:28.980Z,-4.44
2022-12-14T17:31:01.903Z,-4.43
2022-12-14T17:33:31.802Z,-4.42
2022-12-14T17:36:01.248Z,-4.43
2022-12-14T17:38:31.478Z,-4.44
2022-12-14T17:41:00.349Z,-4.43
2022-12-14T17:43:29.734Z,-4.42
2022-12-14T17:46:01.221Z,-4.42
2022-12-14T17:48:30.317Z,-4.41
2022-12-14T17:50:59.132Z,-4.42
2022-12-14T17:53:31.392Z,-4.43
2022-12-14T17:56:00.707Z,-4.44
2022-12-14T17:58:29.447Z,-4.41
2022-12-14T18:01:01.876Z,-4.37
2022-12-14T18:03:36.628Z,-4.38
2022-12-14T18:06:06.010Z,-4.41
2022-12-14T18:08:34.844Z,-4.41
2022-12-14T18:11:11.828Z,-4.39
2022-12-14T18:13:44.222Z,-4.37
2022-12-14T18:16:17.048Z,-4.41
2022-12-14T18:18:46.276Z,-4.41
2022-12-14T18:21:50.785Z,-4.39
2022-12-14T18:24:25.633Z,-4.38
2022-12-14T18:26:57.022Z,-4.36
2022-12-14T18:29:26.331Z,-4.30
2022-12-14T18:31:55.234Z,-4.31
2022-12-14T18:34:24.080Z,-4.33
2022-12-14T18:36:52.945Z,-4.34
2022-12-14T18:39:22.558Z,-4.36
2022-12-14T18:41:51.715Z,-4.37
2022-12-14T18:44:20.666Z,-4.40
2022-12-14T18:46:49.776Z,-4.43
2022-12-14T18:49:18.607Z,-4.49
2022-12-14T18:51:47.451Z,-4.51
2022-12-14T18:54:16.439Z,-4.53
2022-12-14T18:56:45.293Z,-4.51
2022-12-14T18:59:18.586Z,-4.50
2022-12-14T19:01:47.431Z,-4.46
2022-12-14T19:04:16.450Z,-4.45
2022-12-14T19:06:46.139Z,-4.48
2022-12-14T19:09:15.214Z,-4.53
2022-12-14T19:11:44.458Z,-4.58
2022-12-14T19:14:13.234Z,-4.61
2022-12-14T19:16:42.058Z,-4.63
2022-12-14T19:19:10.965Z,-4.63
2022-12-14T19:21:40.255Z,-4.64
2022-12-14T19:24:09.244Z,-4.67
2022-12-14T19:26:39.104Z,-4.66
2022-12-14T19:29:07.969Z,-4.65
2022-12-14T19:31:36.841Z,-4.62
2022-12-14T19:34:05.925Z,-4.59
2022-12-14T19:36:34.697Z,-4.63
2022-12-14T19:39:03.516Z,-4.66
2022-12-14T19:41:32.399Z,-4.65
2022-12-14T19:44:01.526Z,-4.64
2022-12-14T19:46:30.471Z,-4.61
2022-12-14T19:49:00.021Z,-4.60
2022-12-14T19:51:29.093Z,-4.62
2022-12-14T19:53:58.050Z,-4.61
2022-12-14T19:56:26.894Z,-4.61
2022-12-14T19:58:58.425Z,-4.61
2022-12-14T20:01:31.878Z,-4.62
2022-12-14T20:04:02.038Z,-4.61
2022-12-14T20:06:32.386Z,-4.58
2022-12-14T20:09:05.222Z,-4.55
2022-12-14T20:11:34.233Z,-4.55
2022-12-14T20:14:03.425Z,-4.58
2022-12-14T20:16:32.750Z,-4.60
2022-12-14T20:19:02.253Z,-4.58
2022-12-14T20:21:31.498Z,-4.56
2022-12-14T20:24:01.877Z,-4.55
2022-12-14T20:26:30.972Z,-4.57
2022-12-14T20:29:01.575Z,-4.59
2022-12-14T20:31:31.105Z,-4.55
2022-12-14T20:34:05.061Z,-4.54
2022-12-14T20:36:34.099Z,-4.54
2022-12-14T20:39:05.445Z,-4.50
2022-12-14T20:41:34.498Z,-4.46
2022-12-14T20:44:11.841Z,-4.46
2022-12-14T20:46:44.969Z,-4.43
2022-12-14T20:49:18.495Z,-4.38
2022-12-14T20:51:48.883Z,-4.35
2022-12-14T20:54:19.924Z,-4.32
2022-12-14T20:56:49.285Z,-4.31
2022-12-14T20:59:19.198Z,-4.29
2022-12-14T21:01:55.032Z,-4.28
2022-12-14T21:04:25.185Z,-4.30
2022-12-14T21:06:54.218Z,-4.29
2022-12-14T21:09:23.329Z,-4.27
2022-12-14T21:12:10.786Z,-4.26
2022-12-14T21:14:48.167Z,-4.25
2022-12-14T21:17:17.195Z,-4.26
2022-12-14T21:19:46.151Z,-4.24
2022-12-14T21:22:19.960Z,-4.21
2022-12-14T21:25:06.181Z,-4.19
2022-12-14T21:27:39.101Z,-4.16
2022-12-14T21:30:13.318Z,-4.11
2022-12-14T21:32:42.338Z,-4.06
2022-12-14T21:35:13.306Z,-4.03
2022-12-14T21:37:42.190Z,-4.02
2022-12-14T21:40:31.446Z,-3.99
2022-12-14T21:43:00.881Z,-3.98
2022-12-14T21:45:29.792Z,-3.98
2022-12-14T21:47:58.565Z,-3.96
2022-12-14T21:50:27.299Z,-3.98
2022-12-14T21:52:56.013Z,-3.97
2022-12-14T21:55:24.788Z,-3.94
2022-12-14T21:58:12.113Z,-3.97
2022-12-14T22:00:40.870Z,-3.96
2022-12-14T22:03:10.019Z,-3.94
2022-12-14T22:05:39.834Z,-3.92
2022-12-14T22:08:08.569Z,-3.90
2022-12-14T22:10:37.414Z,-3.88
2022-12-14T22:13:06.387Z,-3.86
2022-12-14T22:15:35.857Z,-3.88
2022-12-14T22:18:04.805Z,-3.91
2022-12-14T22:20:33.737Z,-3.91
2022-12-14T22:23:02.628Z,-3.92
2022-12-14T22:25:34.769Z,-3.91
2022-12-14T22:28:06.632Z,-3.88
2022-12-14T22:30:35.357Z,-3.86
2022-12-14T22:33:05.532Z,-3.85
2022-12-14T22:35:34.272Z,-3.81
2022-12-14T22:38:03.001Z,-3.76
2022-12-14T22:40:32.795Z,-3.71
2022-12-14T22:43:01.748Z,-3.69
2022-12-14T22:45:30.584Z,-3.67
2022-12-14T22:47:59.277Z,-3.64
2022-12-14T22:50:30.155Z,-3.61
2022-12-14T22:53:01.357Z,-3.60
2022-12-14T22:55:34.397Z,-3.60
2022-12-14T22:58:09.796Z,-3.61
2022-12-14T23:00:38.521Z,-3.64
2022-12-14T23:03:07.478Z,-3.64
2022-12-14T23:05:38.576Z,-3.64
2022-12-14T23:08:07.320Z,-3.65
2022-12-14T23:10:54.658Z,-3.67
2022-12-14T23:13:41.974Z,-3.68
2022-12-14T23:16:29.285Z,-3.71
2022-12-14T23:19:16.651Z,-3.75
2022-12-14T23:22:03.938Z,-3.77
2022-12-14T23:24:51.484Z,-3.75
2022-12-14T23:27:39.008Z,-3.74
2022-12-14T23:30:28.033Z,-3.70
2022-12-14T23:33:15.904Z,-3.66
2022-12-14T23:36:03.098Z,-3.64
2022-12-14T23:38:50.650Z,-3.65
2022-12-14T23:41:37.969Z,-3.66
2022-12-14T23:44:25.275Z,-3.65
2022-12-14T23:47:12.419Z,-3.63
2022-12-14T23:49:59.700Z,-3.61
2022-12-14T23:52:47.003Z,-3.63
2022-12-14T23:55:34.299Z,-3.67
2022-12-14T23:58:21.524Z,-3.67
